sensor_id;sensor_type;location;lat;lon;timestamp;temperature;humidity
13496;DHT22;6820;49.374;8.452;2023-09-12T00:03:41;23.71;99.99
13496;DHT22;6820;49.374;8.452;2023-09-12T00:07:43;23.69;99.99
13496;DHT22;6820;49.374;8.452;2023-09-12T00:11:45;23.71;99.99
13496;DHT22;6820;49.374;8.452;2023-09-12T00:15:47;23.71;99.99
13496;DHT22;6820;49.374;8.452;2023-09-12T00:19:48;23.60;99.99
13496;DHT22;6820;49.374;8.452;2023-09-12T00:23:50;23.54;99.99
13496;DHT22;6820;49.374;8.452;2023-09-12T00:27:52;23.50;99.99
13496;DHT22;6820;49.374;8.452;2023-09-12T00:31:53;23.49;99.99
13496;DHT22;6820;49.374;8.452;2023-09-12T00:35:55;23.39;99.99
13496;DHT22;6820;49.374;8.452;2023-09-12T00:39:56;23.35;99.99
13496;DHT22;6820;49.374;8.452;2023-09-12T00:43:58;23.29;99.99
13496;DHT22;6820;49.374;8.452;2023-09-12T00:48:01;23.22;99.99
13496;DHT22;6820;49.374;8.452;2023-09-12T00:52:06;23.21;99.99
13496;DHT22;6820;49.374;8.452;2023-09-12T00:56:08;23.16;99.99
13496;DHT22;6820;49.374;8.452;2023-09-12T01:00:11;23.12;99.99
13496;DHT22;6820;49.374;8.452;2023-09-12T01:04:14;23.09;99.99
13496;DHT22;6820;49.374;8.452;2023-09-12T01:08:35;23.03;99.99
13496;DHT22;6820;49.374;8.452;2023-09-12T01:12:38;22.89;99.99
13496;DHT22;6820;49.374;8.452;2023-09-12T01:16:40;22.81;99.99
13496;DHT22;6820;49.374;8.452;2023-09-12T01:20:49;22.76;99.99
13496;DHT22;6820;49.374;8.452;2023-09-12T01:29:21;22.74;99.99
13496;DHT22;6820;49.374;8.452;2023-09-12T01:33:23;22.74;99.99
13496;DHT22;6820;49.374;8.452;2023-09-12T01:37:26;22.74;99.99
13496;DHT22;6820;49.374;8.452;2023-09-12T01:41:28;22.74;99.99
13496;DHT22;6820;49.374;8.452;2023-09-12T01:45:33;22.67;99.99
13496;DHT22;6820;49.374;8.452;2023-09-12T01:49:37;22.64;99.99
13496;DHT22;6820;49.374;8.452;2023-09-12T01:53:43;22.63;99.99
13496;DHT22;6820;49.374;8.452;2023-09-12T01:57:46;22.60;99.99
13496;DHT22;6820;49.374;8.452;2023-09-12T02:01:48;22.54;99.99
13496;DHT22;6820;49.374;8.452;2023-09-12T02:05:50;22.48;99.99
13496;DHT22;6820;49.374;8.452;2023-09-12T02:09:52;22.45;99.99
13496;DHT22;6820;49.374;8.452;2023-09-12T02:13:53;22.45;99.99
13496;DHT22;6820;49.374;8.452;2023-09-12T02:17:55;22.45;99.99
13496;DHT22;6820;49.374;8.452;2023-09-12T02:21:57;22.48;99.99
13496;DHT22;6820;49.374;8.452;2023-09-12T02:26:00;22.48;99.99
13496;DHT22;6820;49.374;8.452;2023-09-12T02:30:02;22.51;99.99
13496;DHT22;6820;49.374;8.452;2023-09-12T02:34:05;22.49;99.99
13496;DHT22;6820;49.374;8.452;2023-09-12T02:38:07;22.52;99.99
13496;DHT22;6820;49.374;8.452;2023-09-12T02:42:09;22.41;99.99
13496;DHT22;6820;49.374;8.452;2023-09-12T02:46:11;22.24;99.99
13496;DHT22;6820;49.374;8.452;2023-09-12T02:50:13;22.14;99.99
13496;DHT22;6820;49.374;8.452;2023-09-12T02:54:14;22.06;99.99
13496;DHT22;6820;49.374;8.452;2023-09-12T02:58:16;22.11;99.99
13496;DHT22;6820;49.374;8.452;2023-09-12T03:02:17;22.20;99.99
13496;DHT22;6820;49.374;8.452;2023-09-12T03:06:20;22.24;99.99
13496;DHT22;6820;49.374;8.452;2023-09-12T03:10:21;22.23;99.99
13496;DHT22;6820;49.374;8.452;2023-09-12T03:14:23;22.21;99.99
13496;DHT22;6820;49.374;8.452;2023-09-12T03:18:25;22.26;99.99
13496;DHT22;6820;49.374;8.452;2023-09-12T03:22:28;22.26;99.99
13496;DHT22;6820;49.374;8.452;2023-09-12T03:26:30;22.19;99.99
13496;DHT22;6820;49.374;8.452;2023-09-12T03:30:33;22.19;99.99
13496;DHT22;6820;49.374;8.452;2023-09-12T03:34:35;22.20;99.99
13496;DHT22;6820;49.374;8.452;2023-09-12T03:38:37;22.17;99.99
13496;DHT22;6820;49.374;8.452;2023-09-12T03:42:39;22.05;99.99
13496;DHT22;6820;49.374;8.452;2023-09-12T03:46:44;22.04;99.99
13496;DHT22;6820;49.374;8.452;2023-09-12T03:50:46;22.09;99.99
13496;DHT22;6820;49.374;8.452;2023-09-12T03:54:48;22.12;99.99
13496;DHT22;6820;49.374;8.452;2023-09-12T03:58:49;22.15;99.99
13496;DHT22;6820;49.374;8.452;2023-09-12T04:02:52;22.20;99.99
13496;DHT22;6820;49.374;8.452;2023-09-12T04:06:53;22.21;99.99
13496;DHT22;6820;49.374;8.452;2023-09-12T04:10:56;22.15;99.99
13496;DHT22;6820;49.374;8.452;2023-09-12T04:14:57;22.05;99.99
13496;DHT22;6820;49.374;8.452;2023-09-12T04:18:59;22.04;99.99
13496;DHT22;6820;49.374;8.452;2023-09-12T04:23:01;22.04;99.99
13496;DHT22;6820;49.374;8.452;2023-09-12T04:27:07;22.05;99.99
13496;DHT22;6820;49.374;8.452;2023-09-12T04:31:08;22.01;99.99
13496;DHT22;6820;49.374;8.452;2023-09-12T04:35:10;22.02;99.99
13496;DHT22;6820;49.374;8.452;2023-09-12T04:39:12;22.01;99.99
13496;DHT22;6820;49.374;8.452;2023-09-12T04:43:14;21.98;99.99
13496;DHT22;6820;49.374;8.452;2023-09-12T04:47:16;21.89;99.99
13496;DHT22;6820;49.374;8.452;2023-09-12T04:51:18;21.83;99.99
13496;DHT22;6820;49.374;8.452;2023-09-12T04:55:20;21.85;99.99
13496;DHT22;6820;49.374;8.452;2023-09-12T04:59:21;21.89;99.99
13496;DHT22;6820;49.374;8.452;2023-09-12T05:03:23;21.89;99.99
13496;DHT22;6820;49.374;8.452;2023-09-12T05:07:28;21.91;99.99
13496;DHT22;6820;49.374;8.452;2023-09-12T05:11:30;21.96;99.99
13496;DHT22;6820;49.374;8.452;2023-09-12T05:15:31;21.99;99.99
13496;DHT22;6820;49.374;8.452;2023-09-12T05:19:33;22.04;99.99
13496;DHT22;6820;49.374;8.452;2023-09-12T05:23:35;21.99;99.99
13496;DHT22;6820;49.374;8.452;2023-09-12T05:27:37;21.96;99.99
13496;DHT22;6820;49.374;8.452;2023-09-12T05:31:39;21.91;99.99
13496;DHT22;6820;49.374;8.452;2023-09-12T05:35:42;21.90;99.99
13496;DHT22;6820;49.374;8.452;2023-09-12T05:39:45;21.91;99.99
13496;DHT22;6820;49.374;8.452;2023-09-12T05:43:47;21.90;99.99
13496;DHT22;6820;49.374;8.452;2023-09-12T05:47:49;21.91;99.99
13496;DHT22;6820;49.374;8.452;2023-09-12T05:51:52;21.93;99.99
13496;DHT22;6820;49.374;8.452;2023-09-12T05:55:54;21.91;99.99
13496;DHT22;6820;49.374;8.452;2023-09-12T05:59:56;21.85;99.99
13496;DHT22;6820;49.374;8.452;2023-09-12T06:03:57;21.85;99.99
13496;DHT22;6820;49.374;8.452;2023-09-12T06:07:59;21.89;99.99
13496;DHT22;6820;49.374;8.452;2023-09-12T06:12:01;21.86;99.99
13496;DHT22;6820;49.374;8.452;2023-09-12T06:16:04;21.86;99.99
13496;DHT22;6820;49.374;8.452;2023-09-12T06:20:07;21.85;99.99
13496;DHT22;6820;49.374;8.452;2023-09-12T06:24:12;21.83;99.99
13496;DHT22;6820;49.374;8.452;2023-09-12T06:28:28;21.86;99.99
13496;DHT22;6820;49.374;8.452;2023-09-12T06:32:31;21.94;99.99
13496;DHT22;6820;49.374;8.452;2023-09-12T06:36:33;22.01;99.99
13496;DHT22;6820;49.374;8.452;2023-09-12T06:40:35;22.09;99.99
13496;DHT22;6820;49.374;8.452;2023-09-12T06:44:36;22.17;99.99
13496;DHT22;6820;49.374;8.452;2023-09-12T06:48:38;22.21;99.99
13496;DHT22;6820;49.374;8.452;2023-09-12T06:52:39;22.26;99.99
13496;DHT22;6820;49.374;8.452;2023-09-12T06:56:41;22.30;99.99
13496;DHT22;6820;49.374;8.452;2023-09-12T07:00:44;22.35;99.99
13496;DHT22;6820;49.374;8.452;2023-09-12T07:04:52;22.41;99.99
13496;DHT22;6820;49.374;8.452;2023-09-12T07:08:54;22.44;99.99
13496;DHT22;6820;49.374;8.452;2023-09-12T07:12:55;22.51;99.99
13496;DHT22;6820;49.374;8.452;2023-09-12T07:16:57;22.52;99.99
13496;DHT22;6820;49.374;8.452;2023-09-12T07:21:00;22.54;99.99
13496;DHT22;6820;49.374;8.452;2023-09-12T07:25:02;22.57;99.99
13496;DHT22;6820;49.374;8.452;2023-09-12T07:29:04;22.66;99.99
13496;DHT22;6820;49.374;8.452;2023-09-12T07:33:06;22.72;99.99
13496;DHT22;6820;49.374;8.452;2023-09-12T07:37:08;22.75;99.99
13496;DHT22;6820;49.374;8.452;2023-09-12T07:41:10;22.86;99.99
13496;DHT22;6820;49.374;8.452;2023-09-12T07:45:11;22.96;99.99
13496;DHT22;6820;49.374;8.452;2023-09-12T07:49:14;23.06;99.99
13496;DHT22;6820;49.374;8.452;2023-09-12T07:53:15;23.16;99.99
13496;DHT22;6820;49.374;8.452;2023-09-12T07:57:17;23.22;99.99
13496;DHT22;6820;49.374;8.452;2023-09-12T08:01:19;23.29;99.99
13496;DHT22;6820;49.374;8.452;2023-09-12T08:05:20;23.37;99.99
13496;DHT22;6820;49.374;8.452;2023-09-12T08:09:22;23.44;99.99
13496;DHT22;6820;49.374;8.452;2023-09-12T08:13:27;23.54;99.99
13496;DHT22;6820;49.374;8.452;2023-09-12T08:17:30;23.67;99.99
13496;DHT22;6820;49.374;8.452;2023-09-12T08:21:31;23.79;99.99
13496;DHT22;6820;49.374;8.452;2023-09-12T08:25:33;23.90;99.99
13496;DHT22;6820;49.374;8.452;2023-09-12T08:29:35;23.96;99.99
13496;DHT22;6820;49.374;8.452;2023-09-12T08:33:36;24.05;99.99
13496;DHT22;6820;49.374;8.452;2023-09-12T08:37:39;24.14;99.99
13496;DHT22;6820;49.374;8.452;2023-09-12T08:41:42;24.24;99.99
13496;DHT22;6820;49.374;8.452;2023-09-12T08:45:44;24.36;99.99
13496;DHT22;6820;49.374;8.452;2023-09-12T08:49:47;24.49;99.99
13496;DHT22;6820;49.374;8.452;2023-09-12T08:53:50;24.61;99.99
13496;DHT22;6820;49.374;8.452;2023-09-12T08:57:52;24.71;99.99
13496;DHT22;6820;49.374;8.452;2023-09-12T09:01:56;24.84;99.99
13496;DHT22;6820;49.374;8.452;2023-09-12T09:05:59;24.98;99.99
13496;DHT22;6820;49.374;8.452;2023-09-12T09:10:03;25.08;99.99
13496;DHT22;6820;49.374;8.452;2023-09-12T09:14:08;25.16;99.99
13496;DHT22;6820;49.374;8.452;2023-09-12T09:18:10;25.30;99.99
13496;DHT22;6820;49.374;8.452;2023-09-12T09:22:14;25.41;99.99
13496;DHT22;6820;49.374;8.452;2023-09-12T09:26:16;25.57;99.99
13496;DHT22;6820;49.374;8.452;2023-09-12T09:30:17;25.67;99.99
13496;DHT22;6820;49.374;8.452;2023-09-12T09:34:21;25.75;99.99
13496;DHT22;6820;49.374;8.452;2023-09-12T09:38:23;25.83;99.99
13496;DHT22;6820;49.374;8.452;2023-09-12T09:42:25;25.89;99.99
13496;DHT22;6820;49.374;8.452;2023-09-12T09:46:30;26.00;99.99
13496;DHT22;6820;49.374;8.452;2023-09-12T09:50:33;26.11;99.99
13496;DHT22;6820;49.374;8.452;2023-09-12T09:54:42;26.21;99.99
13496;DHT22;6820;49.374;8.452;2023-09-12T09:58:48;26.29;99.99
13496;DHT22;6820;49.374;8.452;2023-09-12T10:02:52;26.36;99.99
13496;DHT22;6820;49.374;8.452;2023-09-12T10:06:57;26.49;99.99
13496;DHT22;6820;49.374;8.452;2023-09-12T10:11:00;26.66;99.99
13496;DHT22;6820;49.374;8.452;2023-09-12T10:15:02;26.86;99.99
13496;DHT22;6820;49.374;8.452;2023-09-12T10:19:13;27.06;99.99
13496;DHT22;6820;49.374;8.452;2023-09-12T10:23:20;27.16;99.99
13496;DHT22;6820;49.374;8.452;2023-09-12T10:27:29;27.25;99.99
13496;DHT22;6820;49.374;8.452;2023-09-12T10:31:31;27.31;99.99
13496;DHT22;6820;49.374;8.452;2023-09-12T10:35:33;27.33;99.99
13496;DHT22;6820;49.374;8.452;2023-09-12T10:39:36;27.39;99.99
13496;DHT22;6820;49.374;8.452;2023-09-12T10:43:38;27.49;99.99
13496;DHT22;6820;49.374;8.452;2023-09-12T10:47:42;27.68;99.99
13496;DHT22;6820;49.374;8.452;2023-09-12T10:51:45;27.77;99.99
13496;DHT22;6820;49.374;8.452;2023-09-12T11:00:11;28.18;99.99
13496;DHT22;6820;49.374;8.452;2023-09-12T11:08:22;28.57;99.99
13496;DHT22;6820;49.374;8.452;2023-09-12T11:12:34;28.64;99.99
13496;DHT22;6820;49.374;8.452;2023-09-12T11:16:37;28.65;99.99
13496;DHT22;6820;49.374;8.452;2023-09-12T11:20:48;28.67;99.99
13496;DHT22;6820;49.374;8.452;2023-09-12T11:24:52;28.72;99.99
13496;DHT22;6820;49.374;8.452;2023-09-12T11:28:56;28.79;99.99
13496;DHT22;6820;49.374;8.452;2023-09-12T11:32:58;28.92;99.99
13496;DHT22;6820;49.374;8.452;2023-09-12T11:37:01;29.11;99.99
13496;DHT22;6820;49.374;8.452;2023-09-12T11:41:04;29.33;99.99
13496;DHT22;6820;49.374;8.452;2023-09-12T11:45:09;29.37;99.99
13496;DHT22;6820;49.374;8.452;2023-09-12T11:49:12;29.49;99.99
13496;DHT22;6820;49.374;8.452;2023-09-12T11:53:15;29.49;99.99
13496;DHT22;6820;49.374;8.452;2023-09-12T11:57:22;29.64;99.99
13496;DHT22;6820;49.374;8.452;2023-09-12T12:01:24;29.79;99.99
13496;DHT22;6820;49.374;8.452;2023-09-12T12:05:30;29.85;99.99
13496;DHT22;6820;49.374;8.452;2023-09-12T12:09:32;29.92;99.99
13496;DHT22;6820;49.374;8.452;2023-09-12T12:13:34;29.97;99.99
13496;DHT22;6820;49.374;8.452;2023-09-12T12:17:36;30.22;99.99
13496;DHT22;6820;49.374;8.452;2023-09-12T12:21:41;30.45;99.99
13496;DHT22;6820;49.374;8.452;2023-09-12T12:25:43;30.54;99.99
13496;DHT22;6820;49.374;8.452;2023-09-12T12:29:45;30.73;99.99
13496;DHT22;6820;49.374;8.452;2023-09-12T12:33:47;30.97;99.99
13496;DHT22;6820;49.374;8.452;2023-09-12T12:38:14;31.13;99.99
13496;DHT22;6820;49.374;8.452;2023-09-12T12:42:17;31.27;99.99
13496;DHT22;6820;49.374;8.452;2023-09-12T12:46:20;31.34;99.99
13496;DHT22;6820;49.374;8.452;2023-09-12T12:50:25;31.35;99.99
13496;DHT22;6820;49.374;8.452;2023-09-12T12:54:30;31.37;99.99
13496;DHT22;6820;49.374;8.452;2023-09-12T12:58:34;31.42;99.99
13496;DHT22;6820;49.374;8.452;2023-09-12T13:02:39;31.47;99.99
13496;DHT22;6820;49.374;8.452;2023-09-12T13:06:42;31.56;99.99
13496;DHT22;6820;49.374;8.452;2023-09-12T13:10:44;31.62;99.99
13496;DHT22;6820;49.374;8.452;2023-09-12T13:14:46;31.71;99.99
13496;DHT22;6820;49.374;8.452;2023-09-12T13:18:48;31.87;99.99
13496;DHT22;6820;49.374;8.452;2023-09-12T13:22:50;32.06;99.99
13496;DHT22;6820;49.374;8.452;2023-09-12T13:26:51;32.22;99.99
13496;DHT22;6820;49.374;8.452;2023-09-12T13:30:55;32.36;99.99
13496;DHT22;6820;49.374;8.452;2023-09-12T13:34:58;32.34;99.99
13496;DHT22;6820;49.374;8.452;2023-09-12T13:39:00;32.35;99.99
13496;DHT22;6820;49.374;8.452;2023-09-12T13:43:02;32.46;99.99
13496;DHT22;6820;49.374;8.452;2023-09-12T13:47:04;32.50;99.99
13496;DHT22;6820;49.374;8.452;2023-09-12T13:51:06;32.62;99.99
13496;DHT22;6820;49.374;8.452;2023-09-12T13:55:08;32.68;99.99
13496;DHT22;6820;49.374;8.452;2023-09-12T13:59:26;32.72;99.99
13496;DHT22;6820;49.374;8.452;2023-09-12T14:03:41;32.72;99.99
13496;DHT22;6820;49.374;8.452;2023-09-12T14:07:43;32.69;99.99
13496;DHT22;6820;49.374;8.452;2023-09-12T14:11:46;32.63;99.99
13496;DHT22;6820;49.374;8.452;2023-09-12T14:15:49;32.81;99.99
13496;DHT22;6820;49.374;8.452;2023-09-12T14:19:54;33.03;99.99
13496;DHT22;6820;49.374;8.452;2023-09-12T14:23:57;33.00;99.99
13496;DHT22;6820;49.374;8.452;2023-09-12T14:27:59;33.09;99.99
13496;DHT22;6820;49.374;8.452;2023-09-12T14:32:01;33.14;99.99
13496;DHT22;6820;49.374;8.452;2023-09-12T14:36:03;33.18;99.99
13496;DHT22;6820;49.374;8.452;2023-09-12T14:40:05;33.22;99.99
13496;DHT22;6820;49.374;8.452;2023-09-12T14:44:08;33.12;99.99
13496;DHT22;6820;49.374;8.452;2023-09-12T14:48:09;33.17;99.99
13496;DHT22;6820;49.374;8.452;2023-09-12T14:52:11;33.24;99.99
13496;DHT22;6820;49.374;8.452;2023-09-12T14:56:24;33.33;99.99
13496;DHT22;6820;49.374;8.452;2023-09-12T15:00:25;33.38;99.99
13496;DHT22;6820;49.374;8.452;2023-09-12T15:04:27;33.28;99.99
13496;DHT22;6820;49.374;8.452;2023-09-12T15:08:29;33.26;99.99
13496;DHT22;6820;49.374;8.452;2023-09-12T15:12:30;33.29;99.99
13496;DHT22;6820;49.374;8.452;2023-09-12T15:16:32;33.28;99.99
13496;DHT22;6820;49.374;8.452;2023-09-12T15:20:36;33.17;99.99
13496;DHT22;6820;49.374;8.452;2023-09-12T15:24:38;32.93;99.99
13496;DHT22;6820;49.374;8.452;2023-09-12T15:28:40;32.73;99.99
13496;DHT22;6820;49.374;8.452;2023-09-12T15:32:42;32.69;99.99
13496;DHT22;6820;49.374;8.452;2023-09-12T15:36:44;32.76;99.99
13496;DHT22;6820;49.374;8.452;2023-09-12T15:40:47;32.85;99.99
13496;DHT22;6820;49.374;8.452;2023-09-12T15:44:49;32.93;99.99
13496;DHT22;6820;49.374;8.452;2023-09-12T15:49:02;32.95;99.99
13496;DHT22;6820;49.374;8.452;2023-09-12T15:53:05;32.90;99.99
13496;DHT22;6820;49.374;8.452;2023-09-12T15:57:07;32.83;99.99
13496;DHT22;6820;49.374;8.452;2023-09-12T16:01:08;32.77;99.99
13496;DHT22;6820;49.374;8.452;2023-09-12T16:05:10;32.73;99.99
13496;DHT22;6820;49.374;8.452;2023-09-12T16:09:12;32.68;99.99
13496;DHT22;6820;49.374;8.452;2023-09-12T16:13:14;32.58;99.99
13496;DHT22;6820;49.374;8.452;2023-09-12T16:17:16;32.43;99.99
13496;DHT22;6820;49.374;8.452;2023-09-12T16:21:18;32.19;99.99
13496;DHT22;6820;49.374;8.452;2023-09-12T16:25:20;32.02;99.99
13496;DHT22;6820;49.374;8.452;2023-09-12T16:29:22;31.76;99.99
13496;DHT22;6820;49.374;8.452;2023-09-12T16:33:23;31.60;99.99
13496;DHT22;6820;49.374;8.452;2023-09-12T16:37:25;31.47;99.99
13496;DHT22;6820;49.374;8.452;2023-09-12T16:41:27;31.35;99.99
13496;DHT22;6820;49.374;8.452;2023-09-12T16:45:28;31.19;99.99
13496;DHT22;6820;49.374;8.452;2023-09-12T16:49:30;30.97;99.99
13496;DHT22;6820;49.374;8.452;2023-09-12T16:53:34;30.81;99.99
13496;DHT22;6820;49.374;8.452;2023-09-12T16:57:36;30.61;99.99
13496;DHT22;6820;49.374;8.452;2023-09-12T17:01:38;30.45;99.99
13496;DHT22;6820;49.374;8.452;2023-09-12T17:05:39;30.26;99.99
13496;DHT22;6820;49.374;8.452;2023-09-12T17:09:41;30.13;99.99
13496;DHT22;6820;49.374;8.452;2023-09-12T17:13:44;30.06;99.99
13496;DHT22;6820;49.374;8.452;2023-09-12T17:17:46;29.99;99.99
13496;DHT22;6820;49.374;8.452;2023-09-12T17:21:48;29.91;99.99
13496;DHT22;6820;49.374;8.452;2023-09-12T17:25:49;29.86;99.99
13496;DHT22;6820;49.374;8.452;2023-09-12T17:29:51;29.79;99.99
13496;DHT22;6820;49.374;8.452;2023-09-12T17:33:53;29.73;99.99
13496;DHT22;6820;49.374;8.452;2023-09-12T17:37:55;29.67;99.99
13496;DHT22;6820;49.374;8.452;2023-09-12T17:41:56;29.57;99.99
13496;DHT22;6820;49.374;8.452;2023-09-12T17:45:58;29.49;99.99
13496;DHT22;6820;49.374;8.452;2023-09-12T17:50:11;29.41;99.99
13496;DHT22;6820;49.374;8.452;2023-09-12T17:54:13;29.32;99.99
13496;DHT22;6820;49.374;8.452;2023-09-12T17:58:15;29.20;99.99
13496;DHT22;6820;49.374;8.452;2023-09-12T18:02:17;29.12;99.99
13496;DHT22;6820;49.374;8.452;2023-09-12T18:06:18;29.03;99.99
13496;DHT22;6820;49.374;8.452;2023-09-12T18:10:21;28.70;99.99
13496;DHT22;6820;49.374;8.452;2023-09-12T18:14:25;28.33;99.99
13496;DHT22;6820;49.374;8.452;2023-09-12T18:18:27;28.11;99.99
13496;DHT22;6820;49.374;8.452;2023-09-12T18:22:29;27.90;99.99
13496;DHT22;6820;49.374;8.452;2023-09-12T18:26:31;27.78;99.99
13496;DHT22;6820;49.374;8.452;2023-09-12T18:30:33;27.76;99.99
13496;DHT22;6820;49.374;8.452;2023-09-12T18:34:34;27.69;99.99
13496;DHT22;6820;49.374;8.452;2023-09-12T18:38:37;27.63;99.99
13496;DHT22;6820;49.374;8.452;2023-09-12T18:42:39;27.58;99.99
13496;DHT22;6820;49.374;8.452;2023-09-12T18:46:41;27.53;99.99
13496;DHT22;6820;49.374;8.452;2023-09-12T18:50:43;27.49;99.99
13496;DHT22;6820;49.374;8.452;2023-09-12T18:54:47;27.43;99.99
13496;DHT22;6820;49.374;8.452;2023-09-12T18:58:49;27.42;99.99
13496;DHT22;6820;49.374;8.452;2023-09-12T19:02:51;27.33;99.99
13496;DHT22;6820;49.374;8.452;2023-09-12T19:06:53;27.24;99.99
13496;DHT22;6820;49.374;8.452;2023-09-12T19:10:54;27.23;99.99
13496;DHT22;6820;49.374;8.452;2023-09-12T19:14:56;27.20;99.99
13496;DHT22;6820;49.374;8.452;2023-09-12T19:18:57;27.09;99.99
13496;DHT22;6820;49.374;8.452;2023-09-12T19:22:59;27.06;99.99
13496;DHT22;6820;49.374;8.452;2023-09-12T19:27:02;27.03;99.99
13496;DHT22;6820;49.374;8.452;2023-09-12T19:31:04;26.97;99.99
13496;DHT22;6820;49.374;8.452;2023-09-12T19:35:09;26.87;99.99
13496;DHT22;6820;49.374;8.452;2023-09-12T19:39:11;26.78;99.99
13496;DHT22;6820;49.374;8.452;2023-09-12T19:43:13;26.73;99.99
13496;DHT22;6820;49.374;8.452;2023-09-12T19:47:18;26.54;99.99
13496;DHT22;6820;49.374;8.452;2023-09-12T19:51:22;26.35;99.99
13496;DHT22;6820;49.374;8.452;2023-09-12T19:55:26;26.21;99.99
13496;DHT22;6820;49.374;8.452;2023-09-12T19:59:28;26.21;99.99
13496;DHT22;6820;49.374;8.452;2023-09-12T20:03:30;26.16;99.99
13496;DHT22;6820;49.374;8.452;2023-09-12T20:07:37;26.16;99.99
13496;DHT22;6820;49.374;8.452;2023-09-12T20:11:39;26.21;99.99
13496;DHT22;6820;49.374;8.452;2023-09-12T20:15:41;26.16;99.99
13496;DHT22;6820;49.374;8.452;2023-09-12T20:19:43;26.11;99.99
13496;DHT22;6820;49.374;8.452;2023-09-12T20:23:45;26.08;99.99
13496;DHT22;6820;49.374;8.452;2023-09-12T20:27:53;26.04;99.99
13496;DHT22;6820;49.374;8.452;2023-09-12T20:31:57;26.03;99.99
13496;DHT22;6820;49.374;8.452;2023-09-12T20:36:03;26.04;99.99
13496;DHT22;6820;49.374;8.452;2023-09-12T20:40:08;26.03;99.99
13496;DHT22;6820;49.374;8.452;2023-09-12T20:44:13;26.03;99.99
13496;DHT22;6820;49.374;8.452;2023-09-12T20:48:15;25.93;99.99
13496;DHT22;6820;49.374;8.452;2023-09-12T20:52:20;25.86;99.99
13496;DHT22;6820;49.374;8.452;2023-09-12T20:56:21;25.83;99.99
13496;DHT22;6820;49.374;8.452;2023-09-12T21:00:25;25.72;99.99
13496;DHT22;6820;49.374;8.452;2023-09-12T21:04:26;25.63;99.99
13496;DHT22;6820;49.374;8.452;2023-09-12T21:08:28;25.54;99.99
13496;DHT22;6820;49.374;8.452;2023-09-12T21:12:32;25.46;99.99
13496;DHT22;6820;49.374;8.452;2023-09-12T21:16:34;25.44;99.99
13496;DHT22;6820;49.374;8.452;2023-09-12T21:20:38;25.44;99.99
13496;DHT22;6820;49.374;8.452;2023-09-12T21:24:40;25.39;99.99
13496;DHT22;6820;49.374;8.452;2023-09-12T21:28:43;25.38;99.99
13496;DHT22;6820;49.374;8.452;2023-09-12T21:32:45;25.44;99.99
13496;DHT22;6820;49.374;8.452;2023-09-12T21:36:47;25.44;99.99
13496;DHT22;6820;49.374;8.452;2023-09-12T21:40:49;25.45;99.99
13496;DHT22;6820;49.374;8.452;2023-09-12T21:44:53;25.44;99.99
13496;DHT22;6820;49.374;8.452;2023-09-12T21:48:55;25.39;99.99
13496;DHT22;6820;49.374;8.452;2023-09-12T21:52:57;25.38;99.99
13496;DHT22;6820;49.374;8.452;2023-09-12T21:57:00;25.38;99.99
13496;DHT22;6820;49.374;8.452;2023-09-12T22:01:01;25.42;99.99
13496;DHT22;6820;49.374;8.452;2023-09-12T22:05:04;25.45;99.99
13496;DHT22;6820;49.374;8.452;2023-09-12T22:09:06;25.45;99.99
13496;DHT22;6820;49.374;8.452;2023-09-12T22:13:08;25.45;99.99
13496;DHT22;6820;49.374;8.452;2023-09-12T22:17:10;25.44;99.99
13496;DHT22;6820;49.374;8.452;2023-09-12T22:21:12;25.45;99.99
13496;DHT22;6820;49.374;8.452;2023-09-12T22:25:14;25.44;99.99
13496;DHT22;6820;49.374;8.452;2023-09-12T22:29:16;25.44;99.99
13496;DHT22;6820;49.374;8.452;2023-09-12T22:33:18;25.42;99.99
13496;DHT22;6820;49.374;8.452;2023-09-12T22:37:20;25.41;99.99
13496;DHT22;6820;49.374;8.452;2023-09-12T22:41:21;25.39;99.99
13496;DHT22;6820;49.374;8.452;2023-09-12T22:45:26;25.34;99.99
13496;DHT22;6820;49.374;8.452;2023-09-12T22:49:27;25.26;99.99
13496;DHT22;6820;49.374;8.452;2023-09-12T22:53:29;25.27;99.99
13496;DHT22;6820;49.374;8.452;2023-09-12T22:57:31;25.20;99.99
13496;DHT22;6820;49.374;8.452;2023-09-12T23:01:34;25.19;99.99
13496;DHT22;6820;49.374;8.452;2023-09-12T23:05:36;25.20;99.99
13496;DHT22;6820;49.374;8.452;2023-09-12T23:09:38;25.16;99.99
13496;DHT22;6820;49.374;8.452;2023-09-12T23:13:39;25.16;99.99
13496;DHT22;6820;49.374;8.452;2023-09-12T23:17:42;25.17;99.99
13496;DHT22;6820;49.374;8.452;2023-09-12T23:21:43;25.16;99.99
13496;DHT22;6820;49.374;8.452;2023-09-12T23:25:45;25.12;99.99
13496;DHT22;6820;49.374;8.452;2023-09-12T23:29:47;25.11;99.99
13496;DHT22;6820;49.374;8.452;2023-09-12T23:33:48;25.05;99.99
13496;DHT22;6820;49.374;8.452;2023-09-12T23:37:50;24.98;99.99
13496;DHT22;6820;49.374;8.452;2023-09-12T23:41:52;24.89;99.99
13496;DHT22;6820;49.374;8.452;2023-09-12T23:45:54;24.87;99.99
13496;DHT22;6820;49.374;8.452;2023-09-12T23:49:56;24.77;99.99
13496;DHT22;6820;49.374;8.452;2023-09-12T23:53:58;24.67;99.99
13496;DHT22;6820;49.374;8.452;2023-09-12T23:57:59;24.60;99.99
